Time;durP1;ratioP1;P1;durP2;ratioP2;P2;SDS_P1;SDS_P2;PMS_P1;PMS_P2;Temp;Humidity;BMP_temperature;BMP_pressure;BME280_temperature;BME280_humidity;BME280_pressure;Samples;Min_cycle;Max_cycle;Signal;HPM_P1;HPM_P2
2023/10/20 00:00:05;;;;;;;;;0.33;0.00;;;;;20.33;100.00;97831.34;5032803;27;68851;-69
2023/10/20 00:02:31;;;;;;;;;0.00;0.00;;;;;20.31;100.00;97830.59;5020686;27;45563;-70
2023/10/20 00:04:56;;;;;;;;;0.00;0.00;;;;;20.28;100.00;97826.31;5015426;27;45535;-71
2023/10/20 00:07:22;;;;;;;;;0.00;0.00;;;;;20.26;100.00;97825.59;5032614;27;71524;-70
2023/10/20 00:09:49;;;;;;;;;1.33;0.00;;;;;20.24;100.00;97822.19;5014308;27;68918;-70
2023/10/20 00:12:15;;;;;;;;;0.33;0.00;;;;;20.22;100.00;97816.09;5013970;28;45521;-70
2023/10/20 00:14:41;;;;;;;;;0.00;0.00;;;;;20.18;100.00;97814.59;5010020;28;46321;-70
2023/10/20 00:17:06;;;;;;;;;0.00;0.00;;;;;20.15;100.00;97812.16;5020068;27;68850;-71
2023/10/20 00:19:31;;;;;;;;;0.00;0.00;;;;;20.17;100.00;97804.00;5014122;27;46112;-70
2023/10/20 00:21:57;;;;;;;;;0.00;0.00;;;;;20.09;100.00;97800.09;5021542;27;45566;-69
2023/10/20 00:24:22;;;;;;;;;0.00;0.00;;;;;20.08;100.00;97790.38;5033439;27;60567;-70
2023/10/20 00:26:49;;;;;;;;;0.00;0.00;;;;;20.08;100.00;97789.47;5018294;27;46423;-69
2023/10/20 00:29:14;;;;;;;;;0.00;0.00;;;;;20.04;100.00;97780.00;5029099;27;45418;-70
2023/10/20 00:31:39;;;;;;;;;0.00;0.00;;;;;20.02;100.00;97776.56;5024840;27;65494;-70
2023/10/20 00:34:05;;;;;;;;;0.00;0.00;;;;;19.98;100.00;97784.00;5031898;27;62420;-70
2023/10/20 00:36:30;;;;;;;;;0.00;0.00;;;;;19.96;100.00;97783.25;5023831;27;73449;-70
2023/10/20 00:38:55;;;;;;;;;0.00;0.00;;;;;19.86;100.00;97791.13;5046362;27;45654;-70
2023/10/20 00:41:21;;;;;;;;;0.00;0.00;;;;;19.87;100.00;97787.50;5021024;27;65473;-70
2023/10/20 00:43:46;;;;;;;;;0.00;0.00;;;;;19.89;100.00;97795.41;5016975;27;58201;-70
2023/10/20 00:46:11;;;;;;;;;0.00;0.00;;;;;19.85;100.00;97800.13;5019753;27;70505;-70
2023/10/20 00:48:37;;;;;;;;;0.00;0.00;;;;;19.82;100.00;97800.38;5024829;27;45421;-69
2023/10/20 00:51:05;;;;;;;;;0.00;0.00;;;;;19.79;100.00;97805.94;5025281;27;45453;-70
2023/10/20 00:53:33;;;;;;;;;0.00;0.00;;;;;19.76;100.00;97816.91;5024387;27;45237;-70
2023/10/20 00:56:00;;;;;;;;;0.00;0.00;;;;;19.73;100.00;97821.63;5033639;27;47534;-69
2023/10/20 00:58:25;;;;;;;;;0.00;0.00;;;;;19.71;100.00;97808.34;5055172;27;45293;-69
2023/10/20 01:00:51;;;;;;;;;0.00;0.00;;;;;19.68;100.00;97800.53;5040131;27;62420;-70
2023/10/20 01:03:16;;;;;;;;;0.00;0.00;;;;;19.68;100.00;97799.69;5029798;27;45511;-70
2023/10/20 01:05:42;;;;;;;;;0.00;0.00;;;;;19.65;100.00;97803.44;5011882;27;65568;-70
2023/10/20 01:08:08;;;;;;;;;0.00;0.00;;;;;19.62;100.00;97784.94;5022810;27;64971;-69
2023/10/20 01:10:34;;;;;;;;;0.00;0.00;;;;;19.57;100.00;97776.38;5039099;27;45309;-70
2023/10/20 01:12:59;;;;;;;;;1.00;0.00;;;;;19.57;100.00;97769.19;5003964;28;45605;-71
2023/10/20 01:15:24;;;;;;;;;0.00;0.00;;;;;19.51;100.00;97745.56;5022670;27;69250;-71
2023/10/20 01:17:50;;;;;;;;;0.00;0.00;;;;;19.47;100.00;97741.41;5011633;27;68989;-71
2023/10/20 01:20:15;;;;;;;;;1.00;0.00;;;;;19.47;100.00;97745.91;5029454;27;45358;-70
2023/10/20 01:22:41;;;;;;;;;0.00;0.00;;;;;19.42;100.00;97751.59;5042912;27;60251;-70
2023/10/20 01:25:07;;;;;;;;;0.00;0.00;;;;;19.41;100.00;97752.56;5010878;28;46646;-70
2023/10/20 01:27:32;;;;;;;;;0.00;0.00;;;;;19.42;100.00;97756.94;5032229;27;45557;-70
2023/10/20 01:29:58;;;;;;;;;0.00;0.00;;;;;19.41;100.00;97743.69;5030066;27;64567;-71
2023/10/20 01:32:23;;;;;;;;;0.00;0.00;;;;;19.38;100.00;97737.56;5005882;28;63557;-70
2023/10/20 01:34:48;;;;;;;;;0.00;0.00;;;;;19.36;100.00;97714.59;5022161;27;67286;-69
2023/10/20 01:37:14;;;;;;;;;0.00;0.00;;;;;19.33;100.00;97706.78;5013014;28;46868;-70
2023/10/20 01:39:41;;;;;;;;;0.00;0.00;;;;;19.32;100.00;97705.94;5013560;27;45444;-70
2023/10/20 01:42:07;;;;;;;;;0.00;0.00;;;;;19.28;100.00;97708.94;5029381;27;45706;-70
2023/10/20 01:44:32;;;;;;;;;0.00;0.00;;;;;19.27;100.00;97707.25;5020641;27;46306;-70
2023/10/20 01:46:59;;;;;;;;;0.00;0.00;;;;;19.23;100.00;97698.63;5055351;27;45512;-70
2023/10/20 01:49:24;;;;;;;;;0.00;0.00;;;;;19.23;100.00;97698.63;5032617;27;45540;-70
2023/10/20 01:51:50;;;;;;;;;0.00;0.00;;;;;19.29;100.00;97695.47;5036638;27;45442;-70
2023/10/20 01:54:15;;;;;;;;;0.00;0.00;;;;;19.22;100.00;97683.50;5016496;27;46626;-69
2023/10/20 01:56:41;;;;;;;;;1.00;0.00;;;;;19.19;100.00;97683.75;5022783;27;45507;-70
2023/10/20 01:59:06;;;;;;;;;0.00;0.00;;;;;19.18;100.00;97676.69;5013550;28;45785;-69
2023/10/20 02:01:31;;;;;;;;;0.00;0.00;;;;;19.19;100.00;97682.91;5021053;27;62585;-70
2023/10/20 02:03:57;;;;;;;;;0.00;0.00;;;;;19.19;100.00;97677.56;5011759;28;72480;-69
2023/10/20 02:06:22;;;;;;;;;0.67;0.00;;;;;19.17;100.00;97668.78;5016576;27;45453;-69
2023/10/20 02:08:48;;;;;;;;;0.00;0.00;;;;;19.16;100.00;97661.72;5035854;27;64943;-70
2023/10/20 02:11:13;;;;;;;;;0.00;0.00;;;;;19.15;100.00;97650.16;5040776;27;56835;-70
2023/10/20 02:13:38;;;;;;;;;0.00;0.00;;;;;19.13;100.00;97643.25;5031861;27;57417;-70
2023/10/20 02:16:06;;;;;;;;;0.00;0.00;;;;;19.14;100.00;97626.22;5016973;27;45372;-69
2023/10/20 02:18:31;;;;;;;;;0.00;0.00;;;;;19.12;100.00;97618.28;5027014;22;45455;-69
2023/10/20 02:21:04;;;;;;;;;0.00;0.00;;;;;19.12;100.00;97615.63;5020002;27;62414;-70
2023/10/20 02:23:34;;;;;;;;;0.00;0.00;;;;;19.11;100.00;97612.09;5034243;27;46525;-69
2023/10/20 02:26:06;;;;;;;;;0.00;0.00;;;;;19.13;100.00;97603.97;5030049;27;46968;-70
2023/10/20 02:28:33;;;;;;;;;0.00;0.00;;;;;19.14;100.00;97608.34;5038886;27;45494;-69
2023/10/20 02:30:59;;;;;;;;;0.00;0.00;;;;;19.10;100.00;97597.03;5017673;27;45489;-70
2023/10/20 02:33:25;;;;;;;;;0.00;0.00;;;;;19.10;100.00;97591.69;5014911;27;45634;-70
2023/10/20 02:35:52;;;;;;;;;1.00;0.00;;;;;19.11;100.00;97590.69;5026500;27;45295;-69
2023/10/20 02:38:19;;;;;;;;;1.00;0.00;;;;;19.10;100.00;97601.53;5016545;27;45436;-70
2023/10/20 02:40:54;;;;;;;;;0.00;0.00;;;;;19.09;100.00;97606.03;5055250;27;45603;-69
2023/10/20 02:43:21;;;;;;;;;0.00;0.00;;;;;19.10;100.00;97604.19;5023960;27;46653;-70
2023/10/20 02:45:54;;;;;;;;;0.00;0.00;;;;;19.06;100.00;97602.72;5025812;27;45462;-70
2023/10/20 02:48:20;;;;;;;;;0.00;0.00;;;;;19.06;100.00;97598.22;5033056;27;45413;-70
2023/10/20 02:50:45;;;;;;;;;0.00;0.00;;;;;19.06;100.00;97581.31;5014185;27;45451;-69
2023/10/20 02:53:11;;;;;;;;;1.00;0.00;;;;;19.08;100.00;97584.75;5039853;27;69593;-69
2023/10/20 02:55:39;;;;;;;;;0.00;0.00;;;;;19.06;100.00;97592.88;5026142;27;45578;-70
2023/10/20 02:58:04;;;;;;;;;0.00;0.00;;;;;19.07;100.00;97585.72;5012263;28;45297;-69
2023/10/20 03:00:30;;;;;;;;;0.00;0.00;;;;;19.06;100.00;97586.66;5017204;27;45174;-69
2023/10/20 03:02:55;;;;;;;;;0.00;0.00;;;;;19.06;100.00;97600.03;5023307;27;47335;-69
2023/10/20 03:05:21;;;;;;;;;1.00;0.00;;;;;19.07;100.00;97594.59;5009944;28;45424;-69
2023/10/20 03:07:47;;;;;;;;;0.00;0.00;;;;;19.05;100.00;97587.66;5017951;27;65804;-70
2023/10/20 03:10:12;;;;;;;;;0.00;0.00;;;;;19.14;100.00;97572.72;5015532;27;45500;-70
2023/10/20 03:12:38;;;;;;;;;1.00;0.00;;;;;19.12;100.00;97567.47;5030083;27;47705;-70
2023/10/20 03:15:04;;;;;;;;;0.00;0.00;;;;;19.09;100.00;97575.75;5014735;28;45473;-70
2023/10/20 03:17:30;;;;;;;;;0.33;0.00;;;;;19.09;100.00;97586.44;5041217;27;45489;-70
2023/10/20 03:19:55;;;;;;;;;1.00;0.00;;;;;19.07;100.00;97583.91;5036035;27;45508;-70
2023/10/20 03:22:22;;;;;;;;;0.00;0.00;;;;;19.05;100.00;97584.97;5018731;27;46051;-69
2023/10/20 03:24:47;;;;;;;;;1.33;0.00;;;;;19.01;100.00;97579.00;5027501;27;45501;-69
2023/10/20 03:27:13;;;;;;;;;0.00;0.00;;;;;19.04;100.00;97568.06;5027641;27;53424;-70
2023/10/20 03:29:38;;;;;;;;;0.00;0.00;;;;;19.04;100.00;97567.22;5032554;27;62720;-69
2023/10/20 03:32:03;;;;;;;;;0.00;0.00;;;;;19.04;100.00;97551.19;5026874;27;72207;-70
2023/10/20 03:34:31;;;;;;;;;0.00;0.00;;;;;18.99;100.00;97539.97;5029749;27;45365;-70
2023/10/20 03:36:57;;;;;;;;;0.00;0.00;;;;;18.99;100.00;97540.81;5017384;27;45184;-71
2023/10/20 03:39:23;;;;;;;;;0.00;0.00;;;;;18.95;100.00;97539.34;5025025;27;45607;-70
2023/10/20 03:41:49;;;;;;;;;0.00;0.00;;;;;18.98;100.00;97540.94;5024397;27;47529;-70
2023/10/20 03:44:15;;;;;;;;;0.00;0.00;;;;;18.96;100.00;97542.88;5032351;27;45633;-70
2023/10/20 03:46:48;;;;;;;;;0.00;0.00;;;;;18.96;100.00;97527.72;5046944;27;45505;-71
2023/10/20 03:49:15;;;;;;;;;0.00;0.00;;;;;18.94;100.00;97524.28;5033904;27;45483;-70
2023/10/20 03:51:45;;;;;;;;;1.00;0.00;;;;;18.94;100.00;97534.97;5026990;27;47409;-70
2023/10/20 03:54:11;;;;;;;;;0.00;0.00;;;;;18.95;100.00;97559.88;5039648;27;45478;-70
2023/10/20 03:56:37;;;;;;;;;0.00;0.00;;;;;18.95;100.00;97554.53;5027642;27;45407;-70
2023/10/20 03:59:03;;;;;;;;;0.00;0.00;;;;;18.91;100.00;97555.72;5019384;27;45508;-70
2023/10/20 04:01:28;;;;;;;;;0.00;0.00;;;;;18.90;100.00;97565.56;5017092;27;47192;-70
2023/10/20 04:03:53;;;;;;;;;0.00;0.00;;;;;18.91;100.00;97571.78;5019015;27;45455;-70
2023/10/20 04:06:19;;;;;;;;;0.00;0.00;;;;;18.90;100.00;97586.97;5019495;27;66285;-70
2023/10/20 04:08:45;;;;;;;;;0.00;0.00;;;;;18.90;100.00;97599.47;5012239;28;45569;-70
2023/10/20 04:11:12;;;;;;;;;0.00;0.00;;;;;18.92;100.00;97597.56;5020045;27;70346;-71
2023/10/20 04:13:38;;;;;;;;;0.00;0.00;;;;;18.89;100.00;97582.59;5014384;28;47239;-71
2023/10/20 04:16:13;;;;;;;;;0.00;0.00;;;;;18.89;100.00;97584.41;5039727;27;45397;-70
2023/10/20 04:18:42;;;;;;;;;0.00;0.00;;;;;18.88;100.00;97593.41;5032214;27;45343;-70
2023/10/20 04:21:08;;;;;;;;;0.00;0.00;;;;;18.86;100.00;97592.69;5047762;27;47679;-71
2023/10/20 04:23:34;;;;;;;;;0.00;0.00;;;;;18.83;100.00;97596.41;5040910;27;45585;-71
2023/10/20 04:26:00;;;;;;;;;0.33;0.00;;;;;18.83;100.00;97593.75;5024614;27;66928;-70
2023/10/20 05:08:03;;;;;;;;;0.00;0.00;;;;;18.68;100.00;97661.69;5026981;27;45449;-70
2023/10/20 05:10:28;;;;;;;;;1.00;0.00;;;;;18.66;100.00;97668.94;5013143;28;45470;-70
2023/10/20 05:12:54;;;;;;;;;0.00;0.00;;;;;18.65;100.00;97668.09;5014251;27;46523;-69
2023/10/20 05:15:21;;;;;;;;;0.00;0.00;;;;;18.64;100.00;97666.38;5007708;28;68578;-70
2023/10/20 05:17:46;;;;;;;;;0.00;0.00;;;;;18.63;100.00;97663.81;5027884;27;45417;-70
2023/10/20 05:20:13;;;;;;;;;0.00;0.00;;;;;18.63;100.00;97669.16;5020786;27;45685;-69
2023/10/20 05:22:41;;;;;;;;;0.00;0.00;;;;;18.64;100.00;97661.03;5013028;27;45465;-70
2023/10/20 05:25:11;;;;;;;;;0.00;0.00;;;;;18.68;100.00;97667.03;5028904;27;45510;-70
2023/10/20 05:27:36;;;;;;;;;0.33;0.33;;;;;18.66;100.00;97653.75;5049173;27;45404;-70
2023/10/20 05:30:03;;;;;;;;;0.00;0.00;;;;;18.67;100.00;97646.59;5033425;27;45411;-69
2023/10/20 05:32:31;;;;;;;;;0.00;0.00;;;;;18.68;100.00;97645.66;5019145;27;47440;-70
2023/10/20 05:34:58;;;;;;;;;0.00;0.00;;;;;18.65;100.00;97645.88;5019005;27;45513;-70
2023/10/20 05:37:24;;;;;;;;;0.00;0.00;;;;;18.67;100.00;97650.13;5022026;27;45500;-69
2023/10/20 05:39:49;;;;;;;;;0.00;0.00;;;;;18.69;100.00;97642.00;5016299;27;45643;-70
2023/10/20 05:42:16;;;;;;;;;0.00;0.00;;;;;18.69;100.00;97631.31;5023151;27;72059;-70
2023/10/20 05:44:48;;;;;;;;;0.00;0.00;;;;;18.68;100.00;97624.28;5021833;27;45442;-69
2023/10/20 05:47:14;;;;;;;;;0.00;0.00;;;;;18.67;100.00;97622.53;5019615;27;45394;-70
2023/10/20 05:49:39;;;;;;;;;0.67;0.00;;;;;18.61;100.00;97623.84;5013478;28;46338;-71
2023/10/20 05:52:05;;;;;;;;;2.00;0.33;;;;;18.60;100.00;97627.50;5012390;28;62135;-71
2023/10/20 05:54:31;;;;;;;;;2.00;0.67;;;;;18.59;100.00;97631.13;5005787;28;45339;-71
2023/10/20 05:56:57;;;;;;;;;0.00;0.00;;;;;18.56;100.00;97632.19;5013735;28;45425;-71
2023/10/20 05:59:22;;;;;;;;;1.33;0.00;;;;;18.59;100.00;97628.47;5013493;27;45467;-70
2023/10/20 06:01:47;;;;;;;;;2.67;0.00;;;;;18.57;100.00;97630.38;5011906;27;69984;-70
2023/10/20 06:04:12;;;;;;;;;2.00;1.00;;;;;18.55;100.00;97635.00;5001836;28;67853;-70
2023/10/20 06:06:39;;;;;;;;;1.00;1.00;;;;;18.50;100.00;97637.13;5010754;27;63274;-70
2023/10/20 06:09:06;;;;;;;;;0.00;0.00;;;;;18.46;100.00;97646.31;5005375;28;45469;-70
2023/10/20 06:11:31;;;;;;;;;0.00;0.00;;;;;18.36;100.00;97642.59;5020272;27;47500;-69
2023/10/20 06:13:56;;;;;;;;;1.67;1.67;;;;;18.33;100.00;97652.56;5012054;27;45379;-69
2023/10/20 06:16:24;;;;;;;;;2.00;1.00;;;;;18.31;100.00;97654.47;5026990;27;63100;-69
2023/10/20 06:18:49;;;;;;;;;1.33;1.00;;;;;18.29;100.00;97639.53;5011514;28;45550;-70
2023/10/20 06:21:16;;;;;;;;;1.00;1.00;;;;;18.30;100.00;97644.75;5023902;27;46330;-70
2023/10/20 06:23:42;;;;;;;;;1.00;1.00;;;;;18.25;100.00;97643.38;4998211;27;46371;-70
2023/10/20 06:26:07;;;;;;;;;0.33;0.33;;;;;18.28;100.00;97664.53;5002209;27;45492;-69
2023/10/20 06:28:33;;;;;;;;;3.00;1.33;;;;;18.28;100.00;97660.03;5004906;28;60659;-69
2023/10/20 06:31:15;;;;;;;;;1.00;1.00;;;;;18.25;100.00;97648.72;5036365;27;47532;-70
2023/10/20 06:33:43;;;;;;;;;1.00;1.00;;;;;18.20;100.00;97646.38;5007832;27;45519;-68
2023/10/20 06:36:11;;;;;;;;;2.00;1.00;;;;;18.22;100.00;97649.81;5004028;28;45342;-68
2023/10/20 06:38:45;;;;;;;;;1.00;1.00;;;;;18.21;100.00;97642.72;5006750;27;45484;-68
2023/10/20 06:41:10;;;;;;;;;1.00;1.00;;;;;18.22;100.00;97638.28;5006251;27;47483;-70
2023/10/20 06:43:36;;;;;;;;;1.00;1.00;;;;;18.26;100.00;97639.72;5003115;27;45529;-69
2023/10/20 06:46:01;;;;;;;;;1.33;1.33;;;;;18.23;100.00;97638.16;5003927;27;51365;-70
2023/10/20 06:48:28;;;;;;;;;1.33;1.33;;;;;18.22;100.00;97632.94;5002949;28;46337;-69
2023/10/20 06:50:53;;;;;;;;;1.00;1.00;;;;;18.20;100.00;97633.00;5004275;28;46424;-70
2023/10/20 06:53:19;;;;;;;;;1.00;1.00;;;;;18.16;100.00;97628.84;5003446;28;45458;-69
2023/10/20 06:55:46;;;;;;;;;1.00;1.00;;;;;18.15;100.00;97642.31;5002791;28;45658;-70
2023/10/20 06:58:12;;;;;;;;;1.00;1.00;;;;;18.12;100.00;97651.41;5007410;27;45812;-69
2023/10/20 07:00:38;;;;;;;;;1.33;1.33;;;;;18.09;100.00;97656.09;5013308;27;46532;-71
2023/10/20 07:03:04;;;;;;;;;3.00;1.00;;;;;18.02;100.00;97659.22;5007375;27;47314;-70
2023/10/20 07:05:31;;;;;;;;;2.00;2.00;;;;;17.98;100.00;97665.72;5009716;28;45637;-70
2023/10/20 07:07:58;;;;;;;;;3.00;1.00;;;;;17.97;100.00;97665.84;5003319;27;45671;-70
2023/10/20 07:10:24;;;;;;;;;2.00;2.00;;;;;17.97;100.00;97676.50;5024077;27;46618;-69
2023/10/20 07:12:49;;;;;;;;;2.00;2.00;;;;;17.97;100.00;97677.38;5005931;28;45435;-70
2023/10/20 07:15:16;;;;;;;;;3.00;2.00;;;;;18.01;100.00;97686.88;5008126;28;45525;-70
2023/10/20 07:17:41;;;;;;;;;3.00;1.67;;;;;18.09;100.00;97677.47;5025683;27;45593;-71
2023/10/20 07:20:07;;;;;;;;;2.00;2.00;;;;;18.08;100.00;97683.78;5011805;27;47823;-71
2023/10/20 07:22:33;;;;;;;;;3.00;2.00;;;;;18.12;100.00;97674.59;5007234;28;45481;-72
2023/10/20 07:24:58;;;;;;;;;1.67;1.67;;;;;18.15;100.00;97677.88;5008330;27;45628;-71
2023/10/20 07:27:23;;;;;;;;;4.00;3.00;;;;;18.16;100.00;97686.75;5004589;27;63110;-71
2023/10/20 07:29:49;;;;;;;;;1.33;1.33;;;;;18.14;100.00;97681.53;5016806;27;63111;-72
2023/10/20 07:32:15;;;;;;;;;3.00;2.00;;;;;18.17;100.00;97673.31;5011965;27;45299;-73
2023/10/20 07:34:40;;;;;;;;;2.00;2.00;;;;;18.16;100.00;97673.41;4996969;28;45540;-72
2023/10/20 07:37:06;;;;;;;;;2.00;2.00;;;;;18.23;100.00;97672.88;5004320;28;45493;-73
2023/10/20 07:39:33;;;;;;;;;2.00;2.00;;;;;18.30;100.00;97682.16;5003051;27;46674;-73
2023/10/20 07:41:58;;;;;;;;;3.00;2.00;;;;;18.32;100.00;97682.03;5005591;27;47253;-73
2023/10/20 07:44:24;;;;;;;;;2.33;2.00;;;;;18.32;100.00;97677.56;5012107;27;45818;-73
2023/10/20 07:46:50;;;;;;;;;2.33;2.00;;;;;18.31;100.00;97677.66;5007245;28;45444;-73
2023/10/20 07:49:16;;;;;;;;;2.67;2.67;;;;;18.33;100.00;97695.31;5010519;27;46587;-72
2023/10/20 07:51:41;;;;;;;;;2.67;2.67;;;;;18.32;100.00;97706.06;5009794;27;45527;-72
2023/10/20 07:54:08;;;;;;;;;3.33;3.00;;;;;18.29;100.00;97701.81;5010487;28;45263;-72
2023/10/20 07:56:34;;;;;;;;;1.33;1.33;;;;;18.30;100.00;97710.69;5009113;28;45536;-72
2023/10/20 07:59:00;;;;;;;;;4.33;2.67;;;;;18.35;100.00;97710.34;5016175;27;46311;-72
2023/10/20 08:01:25;;;;;;;;;2.00;2.00;;;;;18.40;100.00;97701.06;5016373;27;52112;-72
2023/10/20 08:03:52;;;;;;;;;2.67;2.00;;;;;18.47;100.00;97699.66;5003731;28;45451;-72
2023/10/20 08:06:18;;;;;;;;;2.00;2.00;;;;;18.56;100.00;97711.50;5007493;28;45585;-72
2023/10/20 08:08:44;;;;;;;;;2.00;2.00;;;;;18.62;100.00;97696.84;5005756;28;46472;-72
2023/10/20 08:11:10;;;;;;;;;3.00;2.00;;;;;18.66;100.00;97701.88;5009940;28;45541;-72
2023/10/20 08:13:36;;;;;;;;;4.33;3.00;;;;;18.69;100.00;97716.84;4998651;27;45410;-73
2023/10/20 08:16:03;;;;;;;;;3.00;2.00;;;;;18.68;100.00;97721.34;5020541;27;45548;-72
2023/10/20 08:18:33;;;;;;;;;2.00;1.00;;;;;18.75;100.00;97716.41;5001396;28;47509;-72
2023/10/20 08:21:10;;;;;;;;;3.33;2.00;;;;;18.74;100.00;97717.38;5003688;28;45535;-73
2023/10/20 08:23:37;;;;;;;;;2.00;2.00;;;;;18.78;100.00;97724.22;5013476;27;45554;-72
2023/10/20 08:26:03;;;;;;;;;3.67;3.00;;;;;18.81;100.00;97727.53;5015027;27;45588;-73
2023/10/20 08:28:28;;;;;;;;;3.33;2.00;;;;;18.83;100.00;97736.28;5018048;27;47602;-73
2023/10/20 08:31:05;;;;;;;;;3.00;2.00;;;;;18.93;100.00;97731.13;5011441;28;68650;-72
2023/10/20 08:33:30;;;;;;;;;1.67;1.67;;;;;19.00;100.00;97728.84;5010541;28;45492;-73
2023/10/20 08:35:55;;;;;;;;;2.33;1.00;;;;;19.05;100.00;97724.03;5017333;27;62619;-72
2023/10/20 08:38:21;;;;;;;;;1.00;1.00;;;;;19.18;100.00;97730.19;5004398;28;46745;-72
2023/10/20 08:40:46;;;;;;;;;3.67;1.33;;;;;19.16;100.00;97716.06;5006473;28;45447;-72
2023/10/20 08:43:12;;;;;;;;;4.67;2.00;;;;;19.18;100.00;97710.63;5010014;28;45690;-72
2023/10/20 08:45:37;;;;;;;;;1.33;1.00;;;;;19.17;100.00;97723.13;5013644;27;62478;-72
2023/10/20 08:48:03;;;;;;;;;1.67;1.67;;;;;19.19;100.00;97725.69;5033325;27;70975;-72
2023/10/20 08:50:31;;;;;;;;;2.00;2.00;;;;;19.21;100.00;97721.94;4986635;28;45437;-72
2023/10/20 08:52:58;;;;;;;;;4.33;1.00;;;;;19.24;100.00;97727.06;5005732;28;45594;-72
2023/10/20 08:55:23;;;;;;;;;2.00;1.00;;;;;19.24;100.00;97723.53;5001301;27;46460;-72
2023/10/20 08:57:49;;;;;;;;;3.67;2.00;;;;;19.24;100.00;97728.88;5007728;28;46480;-71
2023/10/20 09:00:20;;;;;;;;;2.00;2.00;;;;;19.24;100.00;97728.88;5007063;27;45410;-72
2023/10/20 09:02:47;;;;;;;;;2.00;2.00;;;;;19.28;100.00;97722.31;5009928;28;45533;-72
2023/10/20 09:05:20;;;;;;;;;1.00;1.00;;;;;19.33;100.00;97725.50;5011825;27;46171;-72
2023/10/20 09:07:53;;;;;;;;;3.00;2.00;;;;;19.30;100.00;97728.44;5011303;28;46505;-72
2023/10/20 09:10:19;;;;;;;;;2.00;2.00;;;;;19.24;100.00;97727.06;5006180;27;45513;-72
2023/10/20 09:12:44;;;;;;;;;2.00;2.00;;;;;19.21;100.00;97737.97;5004437;28;62932;-72
2023/10/20 09:15:11;;;;;;;;;1.00;1.00;;;;;19.15;100.00;97741.09;5012453;27;45570;-72
2023/10/20 09:17:36;;;;;;;;;3.00;3.00;;;;;19.15;100.00;97749.13;5020026;27;46460;-72
2023/10/20 09:20:06;;;;;;;;;2.33;2.00;;;;;19.12;100.00;97738.66;5011264;27;45481;-72
2023/10/20 09:22:32;;;;;;;;;7.33;2.00;;;;;19.11;100.00;97739.63;5013174;28;45491;-72
2023/10/20 09:24:57;;;;;;;;;4.00;3.00;;;;;19.14;100.00;97744.75;5010144;27;45749;-72
2023/10/20 09:27:23;;;;;;;;;1.00;1.00;;;;;19.17;100.00;97744.50;5015977;27;67826;-72
2023/10/20 09:29:50;;;;;;;;;5.00;2.00;;;;;19.18;100.00;97743.56;5024686;27;45333;-72
2023/10/20 09:32:15;;;;;;;;;2.00;2.00;;;;;19.24;100.00;97737.75;5005615;28;45579;-72
2023/10/20 09:34:41;;;;;;;;;2.00;2.00;;;;;19.35;100.00;97743.16;5010714;27;45359;-72
2023/10/20 09:37:06;;;;;;;;;3.67;2.33;;;;;19.45;100.00;97738.00;5008242;28;68599;-72
2023/10/20 09:39:43;;;;;;;;;5.67;3.67;;;;;19.56;100.00;97745.22;5009588;28;59706;-72
2023/10/20 09:42:14;;;;;;;;;5.00;3.00;;;;;19.62;100.00;97744.78;5011350;28;45456;-72
2023/10/20 09:45:09;;;;;;;;;3.33;3.00;;;;;19.72;100.00;97740.44;5007616;27;45250;-72
2023/10/20 09:47:35;;;;;;;;;5.67;2.67;;;;;19.78;100.00;97741.81;5015519;28;46489;-72
2023/10/20 09:50:01;;;;;;;;;2.00;2.00;;;;;19.82;100.00;97736.09;5007974;28;45521;-72
2023/10/20 09:52:29;;;;;;;;;4.00;3.00;;;;;19.87;100.00;97728.59;5006356;27;45518;-72
2023/10/20 09:54:54;;;;;;;;;3.00;3.00;;;;;19.93;100.00;97727.25;5008403;28;45565;-72
2023/10/20 09:57:20;;;;;;;;;7.67;4.33;;;;;20.01;100.00;97738.22;5002750;28;71898;-72
2023/10/20 09:59:51;;;;;;;;;5.00;2.00;;;;;20.05;100.00;97752.22;5022975;28;46828;-72
2023/10/20 10:02:28;;;;;;;;;4.67;2.67;;;;;20.07;100.00;97753.81;5007181;28;45582;-71
2023/10/20 10:04:54;;;;;;;;;5.67;3.00;;;;;20.12;100.00;97756.13;5007982;28;45591;-73
2023/10/20 10:07:28;;;;;;;;;3.00;3.00;;;;;20.22;100.00;97753.59;5011304;28;47691;-72
2023/10/20 10:09:55;;;;;;;;;5.00;3.00;;;;;20.24;100.00;97755.22;5022197;27;45555;-72
2023/10/20 10:12:21;;;;;;;;;3.67;3.67;;;;;20.30;100.00;97752.06;5011368;28;45460;-72
2023/10/20 10:15:12;;;;;;;;;4.00;1.33;;;;;20.44;100.00;97758.16;5003342;27;45635;-72
2023/10/20 10:17:48;;;;;;;;;5.67;2.67;;;;;20.49;100.00;97761.34;5018874;27;46537;-72
2023/10/20 10:20:23;;;;;;;;;3.67;2.33;;;;;20.50;100.00;97758.53;5009383;27;45398;-71
2023/10/20 10:22:59;;;;;;;;;4.00;3.00;;;;;20.46;100.00;97754.41;5011307;28;45556;-72
2023/10/20 10:25:34;;;;;;;;;4.67;4.67;;;;;20.41;100.00;97765.47;5005161;28;45411;-72
2023/10/20 10:28:08;;;;;;;;;5.00;3.00;;;;;20.34;100.00;97763.38;5007207;28;47732;-72
2023/10/20 10:30:34;;;;;;;;;6.67;4.67;;;;;20.30;100.00;97761.91;5003174;28;45871;-72
2023/10/20 10:32:59;;;;;;;;;5.67;4.00;;;;;20.29;100.00;97774.44;5003386;28;45500;-72
2023/10/20 10:35:25;;;;;;;;;7.00;5.67;;;;;20.30;100.00;97772.63;5012923;27;65731;-72
2023/10/20 10:37:53;;;;;;;;;6.67;3.33;;;;;20.23;100.00;97777.59;5004740;28;47493;-70
2023/10/20 10:40:18;;;;;;;;;6.00;3.67;;;;;20.24;100.00;97784.69;5026724;27;45364;-71
2023/10/20 10:42:49;;;;;;;;;8.67;4.00;;;;;20.27;100.00;97787.09;4998784;28;45300;-70
2023/10/20 10:45:22;;;;;;;;;3.33;3.33;;;;;20.25;100.00;97780.19;5008767;28;45361;-70
2023/10/20 10:48:08;;;;;;;;;5.67;2.33;;;;;20.18;100.00;97776.25;5011053;28;46813;-70
2023/10/20 10:50:52;;;;;;;;;4.33;3.00;;;;;20.16;100.00;97781.72;5003064;28;45491;-71
2023/10/20 10:53:17;;;;;;;;;3.00;3.00;;;;;20.13;100.00;97785.50;5001006;28;63921;-72
2023/10/20 10:55:43;;;;;;;;;4.00;4.00;;;;;20.09;100.00;97789.38;5000419;28;45477;-72
2023/10/20 10:58:13;;;;;;;;;7.67;4.00;;;;;20.13;100.00;97784.63;5008345;27;47452;-72
2023/10/20 11:00:39;;;;;;;;;4.33;4.00;;;;;20.19;100.00;97791.34;5016851;27;45435;-72
2023/10/20 11:03:05;;;;;;;;;4.00;4.00;;;;;20.32;100.00;97798.31;5009681;27;45512;-72
2023/10/20 11:05:32;;;;;;;;;6.00;3.00;;;;;20.46;100.00;97788.38;5014882;27;45728;-72
2023/10/20 11:08:02;;;;;;;;;7.67;3.33;;;;;20.53;100.00;97789.63;5019106;27;45477;-72
2023/10/20 11:10:29;;;;;;;;;6.00;3.00;;;;;20.60;100.00;97777.44;5008174;27;45626;-72
2023/10/20 11:12:56;;;;;;;;;4.00;3.33;;;;;20.65;100.00;97783.28;5009780;27;45437;-72
2023/10/20 11:15:24;;;;;;;;;2.33;2.33;;;;;20.67;100.00;97782.22;5007707;28;45695;-72
2023/10/20 11:17:50;;;;;;;;;4.33;3.33;;;;;20.70;100.00;97794.50;5021025;27;46499;-72
2023/10/20 11:20:18;;;;;;;;;5.00;4.00;;;;;20.68;100.00;97783.06;5003603;28;67159;-72
2023/10/20 11:22:44;;;;;;;;;3.67;3.67;;;;;20.58;100.00;97784.75;5006714;28;45533;-71
2023/10/20 11:25:18;;;;;;;;;6.00;5.33;;;;;20.51;100.00;97779.03;5003972;28;63804;-72
2023/10/20 11:27:43;;;;;;;;;5.33;3.67;;;;;20.41;100.00;97776.19;5007639;28;46745;-70
2023/10/20 11:30:09;;;;;;;;;3.00;3.00;;;;;20.31;100.00;97769.81;5022381;27;45827;-71
2023/10/20 11:32:35;;;;;;;;;5.33;4.00;;;;;20.25;100.00;97785.53;5031825;27;45415;-71
2023/10/20 11:35:00;;;;;;;;;5.33;4.33;;;;;20.21;100.00;97776.88;5008311;28;45808;-71
2023/10/20 11:37:26;;;;;;;;;6.00;3.33;;;;;20.21;100.00;97782.22;5008923;28;58460;-71
2023/10/20 11:39:52;;;;;;;;;6.67;6.00;;;;;20.21;100.00;97782.22;5009198;27;54053;-70
2023/10/20 11:42:18;;;;;;;;;5.33;5.33;;;;;20.13;100.00;97779.28;5016775;27;45517;-70
2023/10/20 11:44:43;;;;;;;;;3.67;3.00;;;;;20.12;100.00;97786.47;5009835;28;45546;-72
2023/10/20 11:47:09;;;;;;;;;4.33;3.33;;;;;20.14;100.00;97791.72;5010305;27;46132;-71
2023/10/20 11:49:34;;;;;;;;;3.67;3.00;;;;;20.09;100.00;97769.78;5002451;28;45640;-71
2023/10/20 11:52:02;;;;;;;;;5.00;5.00;;;;;20.08;100.00;97782.34;5010363;27;64486;-71
2023/10/20 11:54:27;;;;;;;;;3.00;3.00;;;;;20.03;100.00;97778.28;5009859;28;45652;-71
2023/10/20 11:56:52;;;;;;;;;4.00;4.00;;;;;20.00;100.00;97771.34;5001351;28;56185;-71
2023/10/20 11:59:18;;;;;;;;;7.67;6.00;;;;;19.98;100.00;97778.66;5003630;28;45459;-72
2023/10/20 12:01:44;;;;;;;;;4.33;4.33;;;;;19.98;100.00;97778.66;5004246;28;63298;-71